Time;durP1;ratioP1;P1;durP2;ratioP2;P2;SDS_P1;SDS_P2;PMS_P1;PMS_P2;Temp;Humidity;BMP_temperature;BMP_pressure;BME280_temperature;BME280_humidity;BME280_pressure;Samples;Min_cycle;Max_cycle;Signal;HPM_P1;HPM_P2
2021/08/02 00:00:47;;;;;;;;;9.67;9.33;;;;;24.30;56.04;97654.94;4957791;27;108079;-93
2021/08/02 00:03:15;;;;;;;;;10.33;10.00;;;;;24.30;55.95;97662.41;5006091;27;103264;-93
2021/08/02 00:05:45;;;;;;;;;11.00;10.33;;;;;24.29;55.79;97655.22;5013783;27;102325;-94
2021/08/02 00:08:19;;;;;;;;;9.67;9.67;;;;;24.29;55.91;97658.00;5013661;27;102195;-94
2021/08/02 00:10:50;;;;;;;;;12.00;10.00;;;;;24.29;55.89;97655.22;5005723;27;103610;-93
2021/08/02 00:13:29;;;;;;;;;8.00;8.00;;;;;24.27;56.05;97666.56;5020908;27;102165;-94
2021/08/02 00:16:09;;;;;;;;;9.67;9.67;;;;;24.26;55.99;97673.25;5024838;27;102277;-93
2021/08/02 00:18:45;;;;;;;;;8.00;7.33;;;;;24.26;55.90;97677.97;5011512;27;101736;-93
2021/08/02 00:21:17;;;;;;;;;11.33;10.33;;;;;24.27;55.93;97674.88;5001827;27;102409;-94
2021/08/02 00:23:51;;;;;;;;;10.00;9.33;;;;;24.26;55.72;97672.44;5013352;27;102075;-94
2021/08/02 00:26:28;;;;;;;;;11.33;10.33;;;;;24.25;55.57;97684.63;4999811;27;102260;-93
2021/08/02 00:29:02;;;;;;;;;12.00;12.00;;;;;24.24;56.04;97696.78;4990811;27;102871;-93
2021/08/02 00:31:37;;;;;;;;;10.33;10.00;;;;;24.25;55.75;97695.66;5013049;27;109009;-94
2021/08/02 00:34:12;;;;;;;;;8.00;8.00;;;;;24.24;56.05;97707.84;4941934;27;102219;-94
2021/08/02 00:37:03;;;;;;;;;11.00;10.00;;;;;24.24;55.91;97705.06;4971146;27;103502;-93
2021/08/02 00:39:40;;;;;;;;;10.00;10.00;;;;;24.22;55.83;97704.59;5009538;27;104931;-93
2021/08/02 00:42:58;;;;;;;;;9.00;8.67;;;;;24.23;56.03;97711.72;4914696;27;108091;-94
2021/08/02 00:45:31;;;;;;;;;8.33;7.00;;;;;24.22;55.75;97705.41;4889095;27;102114;-94
2021/08/02 00:48:06;;;;;;;;;7.33;7.33;;;;;24.21;55.79;97706.53;4992633;27;101954;-94
2021/08/02 00:50:37;;;;;;;;;8.67;8.33;;;;;24.22;55.71;97704.59;5005586;27;102303;-93
2021/08/02 00:53:06;;;;;;;;;9.33;8.67;;;;;24.20;55.74;97702.13;5008941;27;107942;-93
2021/08/02 00:55:36;;;;;;;;;10.00;10.00;;;;;24.20;55.89;97695.78;5015180;27;103142;-94
2021/08/02 00:58:05;;;;;;;;;8.33;8.33;;;;;24.20;55.91;97701.31;5021085;27;101835;-94
2021/08/02 01:00:32;;;;;;;;;8.67;8.67;;;;;24.19;55.88;97700.47;4996661;27;103113;-94
2021/08/02 01:03:03;;;;;;;;;12.00;10.33;;;;;24.17;55.93;97701.94;4956603;27;103826;-94
2021/08/02 01:05:31;;;;;;;;;9.33;9.33;;;;;24.19;55.96;97711.53;5005951;27;101868;-93
2021/08/02 01:08:01;;;;;;;;;10.00;10.00;;;;;24.18;55.80;97709.09;4983914;27;101617;-94
2021/08/02 01:10:31;;;;;;;;;10.33;9.00;;;;;24.18;55.84;97714.63;4990843;27;102057;-93
2021/08/02 01:13:07;;;;;;;;;8.67;8.67;;;;;24.18;55.74;97709.09;4979867;27;103679;-94
2021/08/02 01:15:49;;;;;;;;;8.67;8.00;;;;;24.16;55.63;97716.88;5002073;27;101789;-93
2021/08/02 01:18:30;;;;;;;;;11.00;9.67;;;;;24.17;55.78;97719.31;5015118;27;101582;-94
2021/08/02 01:21:09;;;;;;;;;9.33;7.67;;;;;24.16;55.59;97719.63;5012806;27;101784;-94
2021/08/02 01:23:42;;;;;;;;;7.00;7.00;;;;;24.16;55.78;97716.88;4998758;27;108158;-93
2021/08/02 01:26:45;;;;;;;;;10.00;10.00;;;;;24.15;55.93;97716.00;4970412;27;101724;-93
2021/08/02 01:29:55;;;;;;;;;9.33;8.33;;;;;24.16;55.65;97711.34;4943646;27;101859;-93
2021/08/02 01:32:29;;;;;;;;;7.67;7.67;;;;;24.15;55.92;97710.50;4938375;27;101936;-93
2021/08/02 01:35:03;;;;;;;;;8.00;8.00;;;;;24.14;55.87;97708.84;5003970;27;102637;-93
2021/08/02 01:37:36;;;;;;;;;10.00;8.33;;;;;24.14;55.84;97713.56;5006657;27;101754;-94
2021/08/02 01:40:13;;;;;;;;;8.33;8.00;;;;;24.14;55.70;97706.09;4996045;27;104241;-92
2021/08/02 01:42:47;;;;;;;;;8.00;6.67;;;;;24.14;55.80;97714.38;4965004;27;102233;-93
2021/08/02 01:45:21;;;;;;;;;8.67;8.67;;;;;24.13;55.92;97715.53;5002844;27;103579;-93
2021/08/02 01:48:43;;;;;;;;;8.00;8.00;;;;;24.12;55.85;97704.78;4983524;27;102459;-94
2021/08/02 01:51:28;;;;;;;;;8.67;7.67;;;;;24.13;55.65;97711.94;4935354;27;109161;-94
2021/08/02 01:54:20;;;;;;;;;8.33;8.33;;;;;24.13;55.57;97717.47;5006948;27;102532;-93
2021/08/02 01:56:59;;;;;;;;;8.33;8.33;;;;;24.12;55.74;97726.88;4929528;27;107989;-94
2021/08/02 01:59:29;;;;;;;;;7.67;7.33;;;;;24.11;55.69;97712.25;5007627;27;101600;-94
2021/08/02 02:01:58;;;;;;;;;10.33;8.00;;;;;24.10;55.83;97724.41;4992778;27;101855;-94
2021/08/02 02:04:28;;;;;;;;;9.00;9.00;;;;;24.10;55.82;97718.06;5007213;27;101688;-94
2021/08/02 02:06:57;;;;;;;;;7.00;7.00;;;;;24.10;55.76;97731.88;4988112;27;105030;-93
2021/08/02 02:09:24;;;;;;;;;8.67;7.67;;;;;24.09;55.79;97727.50;4978050;27;103266;-94
2021/08/02 02:11:51;;;;;;;;;9.33;7.67;;;;;24.09;55.48;97725.53;5019981;27;101650;-94
2021/08/02 02:14:18;;;;;;;;;9.33;7.33;;;;;24.08;55.91;97736.91;4987942;27;105010;-94
2021/08/02 02:16:47;;;;;;;;;9.00;8.33;;;;;24.11;55.81;97736.28;5001429;27;104286;-93
2021/08/02 02:19:14;;;;;;;;;10.00;9.00;;;;;24.08;55.59;97734.97;5007842;27;105093;-93
2021/08/02 02:21:42;;;;;;;;;8.67;8.00;;;;;24.07;55.71;97736.09;5014699;27;102028;-94
2021/08/02 02:24:09;;;;;;;;;7.00;7.00;;;;;24.09;55.74;97744.88;4991127;27;102304;-93
2021/08/02 02:26:37;;;;;;;;;8.00;8.00;;;;;24.08;55.91;97745.19;5031148;27;103772;-94
2021/08/02 02:29:05;;;;;;;;;7.00;7.00;;;;;24.08;55.59;97743.25;4993286;27;102029;-93
2021/08/02 02:31:34;;;;;;;;;7.00;6.00;;;;;24.07;55.77;97741.63;5006226;27;102352;-94
2021/08/02 02:34:03;;;;;;;;;9.33;8.33;;;;;24.08;55.64;97743.25;5011810;27;102754;-94
2021/08/02 02:36:30;;;;;;;;;7.33;7.33;;;;;24.08;55.52;97743.25;4990587;27;103398;-94
2021/08/02 02:38:57;;;;;;;;;8.67;7.67;;;;;24.05;55.72;97735.56;4989109;27;102432;-93
2021/08/02 02:41:24;;;;;;;;;10.33;8.33;;;;;24.07;55.75;97735.25;4985646;27;101858;-93
2021/08/02 02:43:51;;;;;;;;;7.00;7.00;;;;;24.05;55.66;97743.84;5012135;27;102105;-94
2021/08/02 02:46:19;;;;;;;;;10.00;10.00;;;;;24.05;55.54;97748.56;4995981;27;104671;-94
2021/08/02 02:48:46;;;;;;;;;7.67;7.00;;;;;24.05;55.54;97752.13;4994019;27;101836;-94
2021/08/02 02:51:14;;;;;;;;;9.67;8.67;;;;;24.06;55.75;97764.00;4987891;27;102071;-93
2021/08/02 02:53:41;;;;;;;;;9.00;8.33;;;;;24.05;55.56;97762.38;5012442;27;102382;-93
2021/08/02 02:56:09;;;;;;;;;6.33;6.33;;;;;24.02;55.64;97761.88;5035046;27;103773;-94
2021/08/02 02:58:37;;;;;;;;;7.00;7.00;;;;;24.04;55.76;97766.28;4997127;27;102017;-93
2021/08/02 03:01:05;;;;;;;;;9.00;8.67;;;;;24.03;55.51;97773.75;5008679;27;105033;-94
2021/08/02 03:03:34;;;;;;;;;8.67;8.67;;;;;24.04;55.78;97774.56;5020883;27;102151;-93
2021/08/02 03:06:01;;;;;;;;;7.00;7.00;;;;;24.03;55.63;97779.25;4989333;27;103572;-94
2021/08/02 03:08:28;;;;;;;;;7.00;6.33;;;;;24.03;55.61;97773.75;4999318;27;102192;-94
2021/08/02 03:10:55;;;;;;;;;8.00;8.00;;;;;24.01;55.42;97771.28;5007876;27;102832;-93
2021/08/02 03:13:23;;;;;;;;;9.00;8.33;;;;;24.02;55.54;97777.63;5008150;27;102246;-93
2021/08/02 03:15:50;;;;;;;;;7.33;7.00;;;;;24.01;55.71;97765.75;5016683;27;103595;-93
2021/08/02 03:18:17;;;;;;;;;8.00;7.33;;;;;24.02;55.54;97774.84;5024018;27;102018;-93
2021/08/02 03:20:44;;;;;;;;;7.00;7.00;;;;;24.01;55.55;97781.50;4997610;27;103039;-93
2021/08/02 03:23:13;;;;;;;;;6.00;5.33;;;;;24.01;55.42;97787.84;5026687;27;102088;-93
2021/08/02 03:25:48;;;;;;;;;6.67;6.67;;;;;23.99;55.71;97790.13;5002397;27;103391;-89
2021/08/02 03:28:29;;;;;;;;;7.00;7.00;;;;;23.99;55.66;97794.81;4952249;27;102245;-93
2021/08/02 03:30:57;;;;;;;;;8.33;7.67;;;;;24.00;55.62;97802.78;5005682;27;102297;-93
2021/08/02 03:33:31;;;;;;;;;8.67;8.00;;;;;24.00;55.54;97807.50;5001569;27;102360;-90
2021/08/02 03:35:59;;;;;;;;;7.67;7.67;;;;;23.99;55.83;97806.69;4983371;27;103645;-93
2021/08/02 03:38:26;;;;;;;;;6.00;5.33;;;;;23.98;55.92;97810.56;4994129;27;101716;-94
2021/08/02 03:40:53;;;;;;;;;6.33;6.33;;;;;23.99;56.26;97812.22;5002251;27;101842;-94
2021/08/02 03:43:21;;;;;;;;;7.33;7.33;;;;;23.98;56.67;97810.56;5005209;27;109805;-93
2021/08/02 03:45:49;;;;;;;;;8.00;8.00;;;;;24.02;56.60;97821.81;4991833;27;103862;-93
2021/08/02 03:48:19;;;;;;;;;7.67;7.33;;;;;24.00;56.73;97819.34;4995361;27;101872;-94
2021/08/02 03:50:47;;;;;;;;;9.00;7.67;;;;;23.99;56.48;97817.72;5014250;27;103108;-93
2021/08/02 03:53:14;;;;;;;;;8.00;7.67;;;;;24.00;56.50;97810.28;5018766;27;101860;-93
2021/08/02 03:55:43;;;;;;;;;7.33;7.33;;;;;23.99;56.24;97812.22;5025049;27;103613;-90
2021/08/02 03:58:10;;;;;;;;;6.33;6.33;;;;;24.00;56.17;97816.59;5024739;27;101659;-93
2021/08/02 04:00:37;;;;;;;;;6.67;6.00;;;;;24.00;56.41;97819.34;5005800;27;101739;-94
2021/08/02 04:03:05;;;;;;;;;6.67;6.33;;;;;24.01;56.28;97826.50;4995698;27;102036;-93
2021/08/02 04:05:32;;;;;;;;;5.00;5.00;;;;;24.00;56.25;97824.06;5015643;27;103605;-93
2021/08/02 04:07:59;;;;;;;;;5.67;5.67;;;;;23.99;56.51;97833.47;5019850;27;101573;-93
2021/08/02 04:10:27;;;;;;;;;8.00;8.00;;;;;23.99;56.39;97825.19;5011961;27;101565;-93
2021/08/02 04:12:55;;;;;;;;;7.00;7.00;;;;;23.99;56.39;97836.25;5005830;27;101679;-93
2021/08/02 04:15:22;;;;;;;;;5.67;5.67;;;;;23.98;56.44;97840.94;5007089;27;103645;-93
2021/08/02 04:17:49;;;;;;;;;7.00;7.00;;;;;23.98;56.27;97837.38;5007433;27;102050;-93
2021/08/02 04:20:18;;;;;;;;;6.00;5.33;;;;;23.98;56.17;97840.94;5022080;27;101684;-93
2021/08/02 04:22:48;;;;;;;;;6.33;6.33;;;;;23.98;56.35;97849.22;5023127;27;102154;-93
2021/08/02 04:25:16;;;;;;;;;6.00;6.00;;;;;23.97;56.10;97853.09;5014325;27;104555;-94
2021/08/02 04:27:43;;;;;;;;;6.33;6.33;;;;;23.97;56.26;97847.59;5021786;27;101974;-92
2021/08/02 04:30:11;;;;;;;;;6.33;5.67;;;;;23.96;56.19;97848.69;5009063;27;102267;-94
2021/08/02 04:32:44;;;;;;;;;5.00;5.00;;;;;23.97;56.09;97864.16;4997619;27;102052;-93
2021/08/02 04:35:12;;;;;;;;;7.67;7.00;;;;;23.97;56.25;97860.56;5005552;27;107985;-93
2021/08/02 04:37:39;;;;;;;;;7.00;6.33;;;;;23.95;56.05;97860.91;5011138;27;101878;-93
2021/08/02 04:40:07;;;;;;;;;6.00;6.00;;;;;23.97;56.13;97863.34;5009940;27;101680;-93
2021/08/02 04:42:37;;;;;;;;;5.67;4.67;;;;;23.95;56.24;97860.91;5022806;27;101732;-93
2021/08/02 04:45:05;;;;;;;;;8.00;8.00;;;;;23.95;55.96;97877.47;5022652;27;103483;-93
2021/08/02 04:47:33;;;;;;;;;6.33;6.33;;;;;23.94;56.22;97884.09;5017958;27;102162;-93
2021/08/02 04:50:00;;;;;;;;;6.00;6.00;;;;;23.94;56.34;97878.59;5010647;27;102188;-93
2021/08/02 04:52:27;;;;;;;;;6.33;6.33;;;;;23.95;56.10;97883.00;5018203;27;101969;-93
2021/08/02 04:54:55;;;;;;;;;7.33;6.33;;;;;23.93;56.14;97885.22;5021255;27;103857;-93
2021/08/02 04:57:22;;;;;;;;;8.33;8.33;;;;;23.93;56.19;97879.69;5002389;27;101706;-93
2021/08/02 04:59:50;;;;;;;;;5.67;5.67;;;;;23.94;56.18;97886.06;5026105;27;101819;-93
2021/08/02 05:02:17;;;;;;;;;7.00;7.00;;;;;23.93;56.23;97888.00;4997570;27;102682;-93
2021/08/02 05:04:44;;;;;;;;;7.00;6.67;;;;;23.94;55.92;97886.06;5027518;27;103837;-93
2021/08/02 05:07:11;;;;;;;;;5.67;5.67;;;;;23.93;55.97;97895.44;5020126;27;101909;-93
2021/08/02 05:09:39;;;;;;;;;6.33;6.33;;;;;23.90;56.14;97883.09;5023056;27;110303;-93
2021/08/02 05:12:06;;;;;;;;;6.67;6.33;;;;;23.90;56.13;97888.59;5029347;27;101812;-94
2021/08/02 05:14:33;;;;;;;;;7.00;7.00;;;;;23.91;56.45;97892.97;5019168;27;103386;-94
2021/08/02 05:17:00;;;;;;;;;7.33;6.33;;;;;23.91;56.46;97887.47;5007067;27;102758;-93
2021/08/02 05:19:28;;;;;;;;;7.67;6.00;;;;;23.90;56.40;97885.84;5029113;27;101785;-93
2021/08/02 05:21:55;;;;;;;;;7.00;6.00;;;;;23.92;56.55;97896.56;5020608;27;101730;-93
2021/08/02 05:24:22;;;;;;;;;7.67;7.67;;;;;23.93;56.30;97900.97;5030046;27;103355;-93
2021/08/02 05:26:49;;;;;;;;;6.00;6.00;;;;;23.92;56.28;97902.91;5023979;27;102231;-94
2021/08/02 05:29:16;;;;;;;;;5.00;4.67;;;;;23.91;56.40;97892.97;5003063;27;101665;-93
2021/08/02 05:31:43;;;;;;;;;6.00;5.67;;;;;23.93;56.48;97900.97;5027262;27;101901;-93
2021/08/02 05:34:13;;;;;;;;;4.67;4.67;;;;;23.92;56.57;97897.38;5022576;27;108012;-94
2021/08/02 05:36:41;;;;;;;;;8.00;7.33;;;;;23.92;56.38;97902.91;5009034;27;102138;-94
2021/08/02 05:39:09;;;;;;;;;5.00;5.00;;;;;23.89;56.64;97903.53;5016035;27;102841;-94
2021/08/02 05:41:36;;;;;;;;;6.00;6.00;;;;;23.90;56.66;97909.88;5008753;27;101795;-93
2021/08/02 05:44:04;;;;;;;;;7.00;7.00;;;;;23.90;56.49;97918.16;5012660;27;103407;-94
2021/08/02 05:46:31;;;;;;;;;5.00;5.00;;;;;23.89;56.79;97914.56;5024257;27;102321;-94
2021/08/02 05:48:58;;;;;;;;;6.00;6.00;;;;;23.89;56.83;97920.09;5027720;27;103539;-94
2021/08/02 05:51:25;;;;;;;;;6.33;5.33;;;;;23.88;56.75;97923.97;5028520;27;102120;-94
2021/08/02 05:53:53;;;;;;;;;7.00;6.00;;;;;23.89;56.63;97927.56;5024585;27;103617;-94
2021/08/02 05:56:20;;;;;;;;;7.33;6.33;;;;;23.88;56.70;97932.25;5021718;27;102165;-94
2021/08/02 05:58:47;;;;;;;;;7.00;7.00;;;;;23.87;56.84;97940.84;5023184;27;102406;-93
2021/08/02 06:01:14;;;;;;;;;7.00;6.00;;;;;23.87;56.76;97940.84;5030363;27;101800;-94
2021/08/02 06:03:42;;;;;;;;;6.00;6.00;;;;;23.87;56.75;97938.06;5018387;27;108290;-93
2021/08/02 06:06:09;;;;;;;;;7.00;6.00;;;;;23.87;56.67;97944.41;5014064;27;102035;-94
2021/08/02 06:08:39;;;;;;;;;6.00;5.33;;;;;23.87;56.84;97941.66;5007611;27;101604;-94
2021/08/02 06:11:07;;;;;;;;;6.00;6.00;;;;;23.86;56.88;97940.03;5021872;27;102404;-94
2021/08/02 06:13:34;;;;;;;;;4.67;4.67;;;;;23.85;56.72;97946.69;5017341;27;103566;-93
2021/08/02 06:16:02;;;;;;;;;5.33;5.33;;;;;23.85;56.92;97954.97;5019164;27;101963;-94
2021/08/02 06:18:30;;;;;;;;;7.00;6.00;;;;;23.85;56.84;97949.44;5015105;27;101944;-93
2021/08/02 06:20:57;;;;;;;;;6.67;6.00;;;;;23.85;56.79;97954.97;5021405;27;102098;-93
2021/08/02 06:23:25;;;;;;;;;5.33;5.33;;;;;23.86;56.87;97959.38;5031087;27;103612;-93
2021/08/02 06:25:52;;;;;;;;;6.00;5.67;;;;;23.86;56.94;97966.84;5018069;27;102112;-93
2021/08/02 06:28:19;;;;;;;;;6.00;6.00;;;;;23.86;56.79;97961.31;5015835;27;101914;-94
2021/08/02 06:30:46;;;;;;;;;4.00;4.00;;;;;23.85;56.78;97968.78;5020003;27;103714;-92
2021/08/02 06:33:13;;;;;;;;;6.33;6.00;;;;;23.84;56.85;97967.13;5015066;27;103372;-94
2021/08/02 06:35:41;;;;;;;;;5.67;4.67;;;;;23.85;56.86;97968.78;5031935;27;102119;-94
2021/08/02 06:38:08;;;;;;;;;5.67;5.00;;;;;23.85;56.95;97968.78;5016319;27;101905;-94
2021/08/02 06:40:35;;;;;;;;;6.00;6.00;;;;;23.85;56.90;97960.50;5015223;27;102036;-93
2021/08/02 06:43:02;;;;;;;;;5.33;5.33;;;;;23.86;56.89;97969.59;5029588;27;103635;-94
2021/08/02 06:45:29;;;;;;;;;5.33;5.33;;;;;23.86;56.81;97972.34;5005817;27;102320;-94
2021/08/02 06:47:56;;;;;;;;;4.67;4.67;;;;;23.86;57.03;97967.66;5005907;27;102104;-93
2021/08/02 06:50:24;;;;;;;;;5.00;5.00;;;;;23.88;56.75;97975.63;5033926;27;101727;-94
2021/08/02 06:52:52;;;;;;;;;4.00;4.00;;;;;23.89;56.85;97972.56;5018579;27;109539;-93
2021/08/02 06:55:19;;;;;;;;;6.00;4.00;;;;;23.89;56.88;97985.56;5024050;27;102524;-93
2021/08/02 06:57:46;;;;;;;;;8.00;5.33;;;;;23.89;56.41;97978.09;5023274;27;101887;-94
2021/08/02 07:00:14;;;;;;;;;5.00;4.33;;;;;23.90;56.75;97974.22;5001263;27;102087;-94
2021/08/02 07:02:42;;;;;;;;;5.67;5.33;;;;;23.90;56.50;97976.97;5004375;27;103478;-94
2021/08/02 07:05:10;;;;;;;;;5.33;4.67;;;;;23.91;56.90;97977.81;5034474;27;102218;-93
2021/08/02 07:07:37;;;;;;;;;3.00;3.00;;;;;23.92;56.54;97983.00;5005967;27;102284;-94
2021/08/02 07:10:05;;;;;;;;;8.00;5.00;;;;;23.92;56.86;97983.00;5024445;27;101835;-94
2021/08/02 07:12:33;;;;;;;;;5.00;5.00;;;;;23.93;56.75;97978.31;5012858;27;103408;-94
2021/08/02 07:15:00;;;;;;;;;6.00;5.00;;;;;23.93;56.63;97981.06;5020438;27;101862;-94
2021/08/02 07:17:27;;;;;;;;;4.00;4.00;;;;;23.94;56.53;97977.19;5008967;27;102295;-94
2021/08/02 07:19:54;;;;;;;;;3.00;3.00;;;;;23.94;56.83;97975.25;4991324;27;102332;-93
2021/08/02 07:22:21;;;;;;;;;6.00;6.00;;;;;23.96;56.60;97988.72;4998097;27;103415;-94
2021/08/02 07:24:48;;;;;;;;;4.67;4.67;;;;;23.95;56.55;97976.88;5016317;27;103304;-90
2021/08/02 07:27:15;;;;;;;;;5.67;4.00;;;;;23.96;56.78;97984.03;5015685;27;101969;-94
2021/08/02 07:29:46;;;;;;;;;3.00;3.00;;;;;23.96;56.69;97972.97;4970272;27;102091;-94
2021/08/02 07:32:13;;;;;;;;;4.00;4.00;;;;;23.98;56.72;97981.81;4999693;27;103437;-93
2021/08/02 07:34:40;;;;;;;;;5.00;5.00;;;;;23.98;56.76;97987.31;5024348;27;102179;-93
2021/08/02 07:37:08;;;;;;;;;4.00;4.00;;;;;23.99;56.63;97983.44;4984608;27;101832;-94
2021/08/02 07:39:35;;;;;;;;;4.33;4.00;;;;;23.99;56.68;97994.50;5036499;27;101744;-93
2021/08/02 07:42:03;;;;;;;;;3.67;3.67;;;;;23.99;56.48;98000.03;5013602;27;103399;-94
2021/08/02 07:44:30;;;;;;;;;6.00;4.33;;;;;24.00;56.68;98006.38;5002386;27;102226;-93
2021/08/02 07:46:57;;;;;;;;;3.33;3.33;;;;;24.00;56.68;98004.41;5033212;27;102235;-93
2021/08/02 07:49:28;;;;;;;;;4.33;4.33;;;;;23.99;56.52;98013.81;5017236;27;102028;-94
2021/08/02 07:51:55;;;;;;;;;3.00;3.00;;;;;23.98;56.81;98017.69;5023884;27;103355;-93
2021/08/02 07:54:22;;;;;;;;;4.00;3.67;;;;;23.98;56.78;98020.47;5025737;27;101996;-85
2021/08/02 07:56:50;;;;;;;;;3.00;3.00;;;;;23.97;56.74;98020.75;5016516;27;102011;-86
2021/08/02 07:59:17;;;;;;;;;4.00;4.00;;;;;23.95;56.83;98029.38;5006475;27;106688;-85
2021/08/02 08:01:44;;;;;;;;;3.00;3.00;;;;;23.96;56.63;98033.75;5034037;27;103394;-85
2021/08/02 08:04:12;;;;;;;;;3.33;3.33;;;;;23.96;56.84;98032.91;5011882;27;101720;-85
2021/08/02 08:06:39;;;;;;;;;4.00;4.00;;;;;23.95;56.64;98040.41;5022293;27;102710;-85
2021/08/02 08:09:06;;;;;;;;;4.33;4.33;;;;;23.96;56.66;98039.25;5027130;27;101855;-85
2021/08/02 08:11:33;;;;;;;;;3.00;3.00;;;;;23.98;56.47;98042.56;5018245;27;103432;-85
2021/08/02 08:14:00;;;;;;;;;2.00;2.00;;;;;23.99;56.60;98035.09;5008584;27;109076;-85
2021/08/02 08:16:28;;;;;;;;;4.33;4.33;;;;;23.98;56.71;98028.75;5018892;27;101749;-85
2021/08/02 08:18:56;;;;;;;;;6.00;6.00;;;;;24.00;56.56;98040.31;5012129;27;102072;-85
2021/08/02 08:21:23;;;;;;;;;5.00;3.00;;;;;24.02;56.57;98034.47;5009008;27;103269;-85
2021/08/02 08:23:50;;;;;;;;;3.33;3.00;;;;;24.04;56.80;98045.25;5025149;27;108960;-85
2021/08/02 08:26:19;;;;;;;;;2.67;2.67;;;;;24.04;56.60;98042.47;4996000;27;102056;-85
2021/08/02 08:28:46;;;;;;;;;1.00;1.00;;;;;24.02;56.74;98038.06;4993555;27;102180;-85
2021/08/02 08:31:14;;;;;;;;;4.00;4.00;;;;;24.04;56.85;98037.78;5021102;27;103436;-85
2021/08/02 08:33:43;;;;;;;;;2.33;2.33;;;;;24.06;57.01;98038.28;5019194;27;101863;-85
2021/08/02 08:36:11;;;;;;;;;3.67;3.00;;;;;24.09;56.64;98042.41;5035205;27;102111;-85
2021/08/02 08:38:38;;;;;;;;;3.33;3.33;;;;;24.10;56.82;98038.50;5003931;27;102134;-85
2021/08/02 08:41:06;;;;;;;;;2.00;2.00;;;;;24.11;56.67;98040.13;5005504;27;103624;-85
2021/08/02 08:43:33;;;;;;;;;4.00;3.00;;;;;24.11;56.73;98034.63;5027919;27;104250;-85
2021/08/02 08:46:00;;;;;;;;;3.33;3.00;;;;;24.11;56.87;98029.91;5013042;27;101921;-85
2021/08/02 08:48:28;;;;;;;;;4.00;3.33;;;;;24.15;56.59;98043.94;5015737;27;101825;-85
2021/08/02 08:50:55;;;;;;;;;2.00;2.00;;;;;24.16;56.82;98042.84;5017264;27;103516;-85
2021/08/02 08:53:22;;;;;;;;;2.00;2.00;;;;;24.15;56.86;98047.53;5009452;27;101753;-84
2021/08/02 08:55:49;;;;;;;;;3.00;3.00;;;;;24.16;56.76;98046.44;5013394;27;101853;-85
2021/08/02 08:58:16;;;;;;;;;2.67;2.00;;;;;24.16;56.59;98048.38;5021057;27;102222;-85
2021/08/02 09:00:44;;;;;;;;;3.00;3.00;;;;;24.17;56.94;98044.50;5014303;27;103540;-85
2021/08/02 09:03:12;;;;;;;;;3.67;3.67;;;;;24.16;56.84;98043.66;5012829;27;102064;-85
2021/08/02 09:05:44;;;;;;;;;3.00;3.00;;;;;24.17;56.71;98038.97;5019001;27;101788;-85
2021/08/02 09:08:17;;;;;;;;;3.50;3.00;;;;;24.17;56.76;98038.97;4996769;27;101604;-85
2021/08/02 09:10:55;;;;;;;;;2.00;2.00;;;;;24.18;56.81;98029.56;5025149;27;103527;-85
2021/08/02 09:13:32;;;;;;;;;3.67;3.67;;;;;24.17;56.99;98039.78;5022246;27;101849;-85
2021/08/02 09:16:09;;;;;;;;;3.33;3.00;;;;;24.17;56.94;98037.03;4939812;27;103134;-85
2021/08/02 09:18:36;;;;;;;;;3.00;3.00;;;;;24.18;57.05;98040.63;5001078;27;102176;-85
2021/08/02 09:21:06;;;;;;;;;2.67;2.67;;;;;24.16;57.28;98034.56;5034791;27;102497;-85
2021/08/02 09:23:34;;;;;;;;;2.67;2.67;;;;;24.17;57.46;98034.25;5006103;27;102872;-85
2021/08/02 09:26:01;;;;;;;;;2.00;2.00;;;;;24.17;57.29;98037.03;5019092;27;102169;-85
2021/08/02 09:28:28;;;;;;;;;2.00;2.00;;;;;24.18;57.63;98035.09;5022767;27;102153;-85
2021/08/02 09:30:59;;;;;;;;;3.00;3.00;;;;;24.20;57.27;98032.81;5022565;27;103551;-85
2021/08/02 09:33:31;;;;;;;;;3.00;2.00;;;;;24.20;57.39;98030.88;5025745;27;101861;-85
2021/08/02 09:36:02;;;;;;;;;3.33;3.00;;;;;24.20;57.38;98030.06;5006295;27;102130;-85
2021/08/02 09:38:29;;;;;;;;;2.00;2.00;;;;;24.22;57.18;98038.88;4996904;27;102350;-85
2021/08/02 09:40:57;;;;;;;;;2.67;2.67;;;;;24.22;57.03;98036.13;5012024;27;103394;-85
2021/08/02 09:43:31;;;;;;;;;2.00;2.00;;;;;24.22;57.26;98034.19;5009319;27;101701;-85
2021/08/02 09:46:08;;;;;;;;;2.00;2.00;;;;;24.22;57.33;98042.47;4940720;27;101860;-85
2021/08/02 09:48:43;;;;;;;;;2.67;2.67;;;;;24.25;57.40;98043.78;5015815;27;105465;-85
2021/08/02 09:51:19;;;;;;;;;2.33;2.33;;;;;24.25;57.22;98041.03;5006971;27;111787;-85
2021/08/02 09:53:48;;;;;;;;;3.33;3.33;;;;;24.25;57.22;98044.63;5021713;27;101756;-85
2021/08/02 09:56:22;;;;;;;;;2.33;2.33;;;;;24.25;57.22;98041.03;5007117;27;102343;-94
2021/08/02 09:59:07;;;;;;;;;2.00;1.33;;;;;24.29;56.92;98047.59;4949552;27;101716;-94
2021/08/02 10:01:35;;;;;;;;;2.67;2.67;;;;;24.28;57.23;98045.94;4999159;27;103692;-95
2021/08/02 10:04:02;;;;;;;;;2.00;2.00;;;;;24.29;57.27;98037.34;4991278;27;102222;-95
2021/08/02 10:06:30;;;;;;;;;3.00;3.00;;;;;24.30;56.82;98040.94;5003848;27;101887;-94
2021/08/02 10:08:58;;;;;;;;;3.00;3.00;;;;;24.30;57.30;98036.25;5016055;27;102127;-94
2021/08/02 10:11:25;;;;;;;;;3.33;3.33;;;;;24.33;56.81;98038.38;5025789;27;103318;-95
2021/08/02 10:13:52;;;;;;;;;3.00;3.00;;;;;24.34;56.68;98040.03;5009916;27;101722;-94
2021/08/02 10:16:26;;;;;;;;;3.00;3.00;;;;;24.34;56.67;98033.69;5011489;27;102048;-95
2021/08/02 10:19:00;;;;;;;;;3.00;3.00;;;;;24.35;56.55;98040.84;4996397;27;101810;-94
2021/08/02 10:21:40;;;;;;;;;3.00;2.00;;;;;24.35;56.58;98044.44;5001273;27;108427;-93
2021/08/02 10:24:16;;;;;;;;;2.33;2.33;;;;;24.36;56.73;98048.03;5020889;27;103340;-94
2021/08/02 10:26:57;;;;;;;;;3.67;3.67;;;;;24.35;56.65;98049.16;5007522;27;102429;-94
2021/08/02 10:29:25;;;;;;;;;2.33;2.33;;;;;24.35;56.74;98051.91;5022894;27;102184;-93
2021/08/02 10:31:53;;;;;;;;;3.00;3.00;;;;;24.34;56.90;98045.56;5016003;27;107959;-94
2021/08/02 10:34:24;;;;;;;;;2.33;2.33;;;;;24.32;56.88;98047.78;5015439;27;101773;-94
2021/08/02 10:37:07;;;;;;;;;2.00;2.00;;;;;24.33;56.95;98060.50;5003650;27;102784;-94
2021/08/02 10:39:34;;;;;;;;;2.00;2.00;;;;;24.33;57.10;98057.72;4958613;27;101739;-95
2021/08/02 10:42:07;;;;;;;;;1.67;1.67;;;;;24.32;57.38;98063.56;4984861;27;103318;-94
2021/08/02 10:44:54;;;;;;;;;2.00;2.00;;;;;24.31;57.45;98068.28;5015944;27;102189;-94
2021/08/02 10:47:22;;;;;;;;;2.00;2.00;;;;;24.31;57.54;98070.22;4984606;28;104444;-94
2021/08/02 10:49:50;;;;;;;;;2.00;2.00;;;;;24.31;57.35;98076.56;5017831;27;102141;-95
2021/08/02 10:52:28;;;;;;;;;1.33;1.33;;;;;24.30;57.36;98072.16;5034391;27;103564;-95
2021/08/02 10:54:56;;;;;;;;;2.67;2.67;;;;;24.29;57.68;98076.03;4990573;27;101929;-94
2021/08/02 10:57:23;;;;;;;;;3.00;2.00;;;;;24.29;57.56;98073.28;4988292;27;104555;-94
2021/08/02 10:59:50;;;;;;;;;3.00;2.33;;;;;24.28;57.61;98077.16;5003344;27;102212;-95
2021/08/02 11:02:18;;;;;;;;;2.00;2.00;;;;;24.29;57.74;98070.53;5023278;27;103709;-94
2021/08/02 11:04:53;;;;;;;;;3.00;2.00;;;;;24.28;57.59;98068.03;5022481;27;101735;-94
2021/08/02 11:07:21;;;;;;;;;2.33;2.33;;;;;24.28;57.71;98052.28;5023251;27;101592;-94
2021/08/02 11:09:48;;;;;;;;;3.00;3.00;;;;;24.32;57.41;98058.03;5021977;27;103246;-94
2021/08/02 11:12:16;;;;;;;;;3.00;2.67;;;;;24.31;56.93;98067.47;4987129;27;103655;-94
2021/08/02 11:14:50;;;;;;;;;2.00;2.00;;;;;24.32;57.29;98060.78;4999100;27;101967;-94
2021/08/02 11:17:19;;;;;;;;;2.00;2.00;;;;;24.31;57.07;98056.41;5004450;27;103316;-94
2021/08/02 11:20:08;;;;;;;;;2.00;2.00;;;;;24.30;57.34;98063.88;5004514;27;102245;-95
2021/08/02 11:22:54;;;;;;;;;2.00;2.00;;;;;24.30;57.26;98058.34;5012608;27;103289;-94
2021/08/02 11:25:32;;;;;;;;;2.00;2.00;;;;;24.27;57.51;98053.41;4998092;28;102104;-94
2021/08/02 11:28:00;;;;;;;;;2.00;2.00;;;;;24.33;57.20;98056.91;4980819;27;101917;-94
2021/08/02 11:30:28;;;;;;;;;2.00;2.00;;;;;24.34;57.23;98062.16;4997448;28;102984;-94
2021/08/02 11:32:56;;;;;;;;;1.33;1.33;;;;;24.32;57.22;98058.03;5018032;27;108436;-94
2021/08/02 11:35:37;;;;;;;;;3.00;2.00;;;;;24.35;57.05;98060.19;4995195;27;102991;-94
2021/08/02 11:38:04;;;;;;;;;2.33;2.00;;;;;24.35;56.88;98057.44;4925152;27;104266;-94